createdAt,value
2023-04-20T00:00:35.288Z,74.70
2023-04-20T00:02:38.616Z,74.90
2023-04-20T00:04:40.932Z,75.20
2023-04-20T00:06:44.098Z,74.90
2023-04-20T00:08:46.527Z,75.30
2023-04-20T00:10:48.564Z,76.10
2023-04-20T00:12:50.537Z,75.50
2023-04-20T00:14:54.245Z,75.50
2023-04-20T00:16:56.315Z,75.60
2023-04-20T00:18:59.251Z,75.50
2023-04-20T00:21:01.170Z,75.80
2023-04-20T00:23:03.625Z,75.80
2023-04-20T00:25:06.593Z,76.00
2023-04-20T00:27:08.938Z,75.90
2023-04-20T00:29:11.306Z,76.00
2023-04-20T00:31:14.741Z,76.30
2023-04-20T00:33:17.105Z,76.20
2023-04-20T00:35:19.096Z,76.30
2023-04-20T00:37:21.075Z,76.30
2023-04-20T00:39:23.058Z,76.30
2023-04-20T00:41:25.151Z,76.60
2023-04-20T00:43:27.332Z,76.70
2023-04-20T00:45:29.338Z,76.60
2023-04-20T00:47:33.036Z,76.80
2023-04-20T00:49:35.297Z,77.00
2023-04-20T00:51:38.208Z,77.20
2023-04-20T00:53:41.109Z,77.00
2023-04-20T00:55:44.237Z,77.30
2023-04-20T00:57:46.353Z,77.10
2023-04-20T00:59:49.805Z,77.60
2023-04-20T01:01:51.859Z,77.10
2023-04-20T01:03:55.776Z,77.30
2023-04-20T01:05:58.219Z,77.50
2023-04-20T01:08:00.324Z,77.50
2023-04-20T01:10:04.313Z,77.50
2023-04-20T01:12:06.921Z,77.50
2023-04-20T01:14:09.022Z,77.50
2023-04-20T01:16:11.954Z,77.40
2023-04-20T01:18:14.311Z,77.60
2023-04-20T01:20:17.879Z,77.70
2023-04-20T01:22:21.311Z,77.90
2023-04-20T01:24:23.241Z,78.00
2023-04-20T01:26:25.949Z,77.80
2023-04-20T01:28:27.949Z,77.90
2023-04-20T01:30:30.215Z,77.90
2023-04-20T01:32:32.556Z,78.10
2023-04-20T01:34:34.739Z,78.20
2023-04-20T01:36:37.040Z,78.00
2023-04-20T01:38:41.182Z,78.10
2023-04-20T01:40:43.190Z,78.10
2023-04-20T01:42:45.428Z,78.10
2023-04-20T01:44:47.858Z,77.80
2023-04-20T01:46:49.921Z,78.10
2023-04-20T01:48:52.013Z,78.00
2023-04-20T01:50:54.759Z,78.20
2023-04-20T01:52:56.718Z,78.40
2023-04-20T01:55:00.291Z,78.50
2023-04-20T01:57:02.384Z,78.60
2023-04-20T01:59:04.415Z,78.80
2023-04-20T02:01:08.200Z,78.90
2023-04-20T02:03:11.149Z,79.00
2023-04-20T02:05:13.468Z,78.90
2023-04-20T02:07:15.928Z,79.10
2023-04-20T02:09:18.077Z,79.30
2023-04-20T02:11:22.505Z,79.40
2023-04-20T02:13:24.930Z,79.40
2023-04-20T02:15:26.934Z,79.50
2023-04-20T02:17:28.986Z,79.80
2023-04-20T02:19:31.066Z,79.70
2023-04-20T02:21:33.411Z,80.00
2023-04-20T02:23:36.643Z,80.20
2023-04-20T02:25:38.806Z,80.20
2023-04-20T02:27:42.161Z,80.50
2023-04-20T02:29:44.367Z,80.60
2023-04-20T02:31:47.038Z,80.80
2023-04-20T02:33:50.286Z,80.70
2023-04-20T02:35:52.513Z,80.80
2023-04-20T02:37:54.486Z,81.00
2023-04-20T02:39:56.518Z,80.90
2023-04-20T02:41:58.510Z,81.00
2023-04-20T02:44:01.969Z,81.10
2023-04-20T02:46:04.134Z,81.30
2023-04-20T02:48:07.495Z,81.00
2023-04-20T02:50:10.676Z,81.30
2023-04-20T02:52:12.625Z,81.40
2023-04-20T02:54:14.730Z,81.60
2023-04-20T02:56:16.812Z,81.70
2023-04-20T02:58:19.036Z,82.10
2023-04-20T03:00:22.771Z,82.10
2023-04-20T03:02:24.933Z,82.00
2023-04-20T03:04:27.856Z,82.30
2023-04-20T03:06:30.084Z,82.30
2023-04-20T03:08:32.314Z,82.20
2023-04-20T03:10:34.442Z,82.40
2023-04-20T03:12:36.818Z,82.40
2023-04-20T03:14:38.798Z,82.60
2023-04-20T03:16:42.373Z,82.30
2023-04-20T03:18:44.438Z,82.60
2023-04-20T03:20:46.730Z,82.70
2023-04-20T03:22:48.792Z,82.60
2023-04-20T03:24:53.589Z,82.60
2023-04-20T03:26:56.196Z,82.60
2023-04-20T03:28:58.312Z,82.40
2023-04-20T03:31:01.597Z,82.70
2023-04-20T03:33:05.023Z,82.50
2023-04-20T03:35:08.726Z,82.50
2023-04-20T03:37:10.808Z,82.50
2023-04-20T03:39:21.522Z,82.40
2023-04-20T03:41:23.798Z,82.50
2023-04-20T03:43:25.778Z,82.40
2023-04-20T03:45:28.311Z,82.00
2023-04-20T03:47:30.493Z,82.10
2023-04-20T03:49:35.505Z,82.10
2023-04-20T03:51:37.321Z,82.40
2023-04-20T03:53:39.728Z,82.90
2023-04-20T03:55:42.435Z,82.30
2023-04-20T03:57:46.699Z,82.40
2023-04-20T03:59:48.808Z,82.40
2023-04-20T04:01:51.790Z,82.40
2023-04-20T04:03:54.065Z,82.40
2023-04-20T04:05:57.683Z,82.50
2023-04-20T04:07:59.673Z,82.70
2023-04-20T04:10:04.272Z,82.50
2023-04-20T04:12:08.184Z,82.60
2023-04-20T04:14:11.135Z,82.50
2023-04-20T04:16:13.255Z,82.30
2023-04-20T04:18:15.319Z,82.50
2023-04-20T04:20:17.415Z,82.60
2023-04-20T04:22:23.091Z,82.50
2023-04-20T04:24:26.735Z,82.80
2023-04-20T04:26:28.830Z,82.70
2023-04-20T04:28:31.458Z,82.90
2023-04-20T04:30:33.722Z,82.90
2023-04-20T04:32:36.349Z,82.90
2023-04-20T04:34:39.020Z,82.90
2023-04-20T04:36:41.752Z,82.70
2023-04-20T04:38:45.143Z,82.80
2023-04-20T04:40:47.170Z,83.00
2023-04-20T04:42:49.918Z,82.50
2023-04-20T04:44:53.430Z,82.60
2023-04-20T04:46:55.401Z,82.70
2023-04-20T04:49:01.274Z,82.80
2023-04-20T04:51:03.741Z,82.90
2023-04-20T04:53:05.984Z,83.10
2023-04-20T04:55:10.070Z,83.20
2023-04-20T04:57:12.459Z,83.50
2023-04-20T04:59:14.427Z,83.20
2023-04-20T05:01:16.474Z,83.10
2023-04-20T05:03:18.665Z,83.30
2023-04-20T05:05:21.632Z,83.30
2023-04-20T05:07:24.726Z,83.40
2023-04-20T05:09:33.163Z,83.20
2023-04-20T05:11:36.836Z,83.10
2023-04-20T05:13:38.860Z,83.00
2023-04-20T05:15:43.767Z,82.80
2023-04-20T05:17:46.295Z,83.00
2023-04-20T05:19:48.350Z,82.90
2023-04-20T05:21:52.589Z,82.80
2023-04-20T05:23:54.723Z,82.80
2023-04-20T05:25:56.835Z,82.90
2023-04-20T05:28:00.282Z,82.90
2023-04-20T05:30:16.574Z,82.90
2023-04-20T05:32:21.424Z,83.10
2023-04-20T05:34:23.465Z,83.20
2023-04-20T05:36:26.358Z,83.20
2023-04-20T05:38:28.271Z,82.90
2023-04-20T05:40:30.804Z,82.90
2023-04-20T05:42:33.139Z,83.80
2023-04-20T05:44:36.514Z,82.80
2023-04-20T05:46:38.562Z,82.80
2023-04-20T05:48:40.742Z,82.70
2023-04-20T05:50:45.002Z,82.70
2023-04-20T05:52:47.051Z,82.80
2023-04-20T05:54:49.828Z,82.90
2023-04-20T05:56:51.835Z,83.10
2023-04-20T05:58:54.498Z,83.10
2023-04-20T06:00:58.031Z,83.10
2023-04-20T06:03:00.167Z,82.80
2023-04-20T06:05:02.277Z,82.90
2023-04-20T06:07:04.297Z,82.90
2023-04-20T06:09:06.409Z,82.70
2023-04-20T06:11:08.388Z,82.20
2023-04-20T06:13:10.783Z,82.40
2023-04-20T06:15:12.985Z,82.10
2023-04-20T06:17:16.695Z,82.30
2023-04-20T06:19:18.955Z,82.30
2023-04-20T06:21:21.278Z,82.10
2023-04-20T06:23:23.271Z,82.30
2023-04-20T06:25:25.660Z,82.00
2023-04-20T06:27:27.907Z,81.80
2023-04-20T06:29:30.211Z,81.70
2023-04-20T06:31:32.576Z,81.80
2023-04-20T06:33:36.427Z,81.50
2023-04-20T06:35:40.021Z,81.80
2023-04-20T06:37:41.994Z,82.00
2023-04-20T06:39:43.981Z,81.70
2023-04-20T06:41:46.180Z,81.80
2023-04-20T06:43:48.258Z,81.80
2023-04-20T06:45:50.272Z,81.80
2023-04-20T06:47:52.328Z,82.30
2023-04-20T06:49:56.108Z,81.70
2023-04-20T06:51:58.098Z,81.90
2023-04-20T06:54:00.226Z,81.80
2023-04-20T06:56:02.322Z,81.40
2023-04-20T06:58:04.396Z,81.60
2023-04-20T07:00:08.893Z,81.60
2023-04-20T07:02:11.099Z,81.20
2023-04-20T07:04:16.729Z,81.40
2023-04-20T07:06:20.139Z,80.90
2023-04-20T07:08:22.303Z,81.30
2023-04-20T07:10:24.515Z,81.30
2023-04-20T07:12:26.572Z,81.50
2023-04-20T07:14:28.686Z,81.90
2023-04-20T07:16:30.864Z,81.20
2023-04-20T07:18:35.259Z,81.40
2023-04-20T07:20:37.778Z,81.60
2023-04-20T07:22:41.270Z,81.70
2023-04-20T07:24:43.309Z,81.50
2023-04-20T07:26:45.693Z,81.60
2023-04-20T07:28:47.698Z,81.30
2023-04-20T07:30:49.777Z,80.90
2023-04-20T07:32:51.821Z,79.60
2023-04-20T07:34:53.884Z,78.20
2023-04-20T07:36:56.114Z,78.10
2023-04-20T07:38:59.465Z,77.90
2023-04-20T07:41:02.061Z,76.40
2023-04-20T07:43:04.135Z,76.10
2023-04-20T07:45:07.397Z,75.20
2023-04-20T07:47:09.513Z,75.90
2023-04-20T07:49:11.662Z,75.40
2023-04-20T07:51:13.646Z,74.40
2023-04-20T07:53:15.776Z,73.80
2023-04-20T07:55:19.340Z,72.80
2023-04-20T07:57:21.366Z,73.30
2023-04-20T07:59:23.461Z,72.90
2023-04-20T08:01:25.980Z,72.80
2023-04-20T08:03:28.985Z,72.60
2023-04-20T08:05:31.644Z,73.30
2023-04-20T08:07:34.264Z,73.00
2023-04-20T08:09:36.455Z,73.90
2023-04-20T08:11:41.070Z,73.00
2023-04-20T08:13:43.050Z,73.00
2023-04-20T08:15:45.370Z,72.50
2023-04-20T08:17:47.398Z,72.90
2023-04-20T08:19:49.446Z,72.60
2023-04-20T08:21:51.725Z,71.70
2023-04-20T08:23:53.856Z,71.10
2023-04-20T08:25:56.305Z,71.20
2023-04-20T08:28:04.269Z,71.50
2023-04-20T08:30:08.906Z,70.50
2023-04-20T08:32:12.472Z,70.50
2023-04-20T08:34:14.538Z,70.60
2023-04-20T08:36:16.771Z,70.70
2023-04-20T08:38:23.768Z,70.70
2023-04-20T08:40:33.108Z,70.20
2023-04-20T08:42:35.759Z,69.70
2023-04-20T08:44:39.262Z,69.70
2023-04-20T08:46:46.627Z,69.40
2023-04-20T08:48:49.724Z,69.60
2023-04-20T08:50:51.782Z,69.60
2023-04-20T08:52:54.306Z,69.60
2023-04-20T08:54:58.001Z,70.10
2023-04-20T08:57:01.812Z,70.80
2023-04-20T08:59:05.745Z,71.40
2023-04-20T09:01:10.130Z,71.10
2023-04-20T09:03:12.382Z,70.90
2023-04-20T09:05:14.544Z,70.80
2023-04-20T09:07:21.355Z,71.60
2023-04-20T09:09:25.718Z,71.00
2023-04-20T09:11:29.637Z,71.20
2023-04-20T09:13:31.684Z,70.60
2023-04-20T09:15:34.017Z,69.20
2023-04-20T09:17:40.754Z,69.40
2023-04-20T09:19:48.133Z,70.10
2023-04-20T09:21:51.258Z,68.90
2023-04-20T09:23:57.523Z,68.00
2023-04-20T09:25:59.452Z,67.90
2023-04-20T09:28:02.141Z,68.40
2023-04-20T09:30:05.337Z,66.00
2023-04-20T09:32:07.607Z,66.70
2023-04-20T09:34:10.949Z,67.00
2023-04-20T09:36:13.594Z,67.10
2023-04-20T09:38:16.581Z,67.10
2023-04-20T09:40:19.713Z,67.10
2023-04-20T09:42:24.160Z,67.90
2023-04-20T09:44:26.223Z,67.80
2023-04-20T09:46:31.421Z,67.90
2023-04-20T09:48:35.169Z,68.60
2023-04-20T09:50:48.512Z,69.00
2023-04-20T09:52:53.311Z,69.60
2023-04-20T09:54:58.819Z,70.30
2023-04-20T09:57:01.717Z,70.60
2023-04-20T09:59:04.437Z,70.50
2023-04-20T10:01:10.309Z,70.80
2023-04-20T10:03:15.959Z,69.60
2023-04-20T10:05:18.791Z,70.30
2023-04-20T10:07:27.015Z,70.30
2023-04-20T10:09:31.045Z,70.40
2023-04-20T10:11:45.184Z,69.70
2023-04-20T10:13:51.709Z,70.60
2023-04-20T10:15:53.752Z,70.30
2023-04-20T10:17:56.139Z,70.00
2023-04-20T10:19:58.883Z,70.10
2023-04-20T10:22:04.376Z,69.80
2023-04-20T10:24:11.760Z,69.70
2023-04-20T10:26:25.010Z,68.40
2023-04-20T10:28:39.731Z,69.30
2023-04-20T10:30:51.267Z,69.70
2023-04-20T10:33:06.823Z,69.90
2023-04-20T10:35:11.126Z,70.60
2023-04-20T10:37:14.194Z,71.00
2023-04-20T10:39:20.054Z,71.00
2023-04-20T10:41:22.614Z,71.30
2023-04-20T10:43:24.800Z,71.20
2023-04-20T10:45:35.236Z,70.70
2023-04-20T10:47:40.431Z,70.50
2023-04-20T10:49:44.851Z,70.70
2023-04-20T10:51:48.184Z,70.50
2023-04-20T10:54:06.835Z,70.70
2023-04-20T10:56:10.938Z,71.20
2023-04-20T10:58:21.853Z,71.70
2023-04-20T11:00:27.223Z,71.80
2023-04-20T11:02:29.519Z,72.00
2023-04-20T11:04:32.443Z,72.80
2023-04-20T11:06:34.837Z,73.00
2023-04-20T11:08:38.721Z,73.50
2023-04-20T11:10:42.298Z,73.30
2023-04-20T11:12:45.986Z,74.00
2023-04-20T11:14:53.036Z,73.80
2023-04-20T11:16:55.556Z,74.00
2023-04-20T11:18:59.418Z,74.10
2023-04-20T11:21:01.421Z,73.90
2023-04-20T11:23:05.903Z,74.30
2023-04-20T11:25:10.808Z,74.20
2023-04-20T11:27:18.943Z,73.80
2023-04-20T11:29:33.473Z,74.30
2023-04-20T11:31:35.568Z,74.70
2023-04-20T11:33:37.740Z,74.00
2023-04-20T11:35:44.369Z,73.10
2023-04-20T11:37:47.997Z,72.50
2023-04-20T11:39:59.527Z,72.70
2023-04-20T11:42:02.058Z,72.20
2023-04-20T11:44:05.524Z,73.00
2023-04-20T11:46:15.644Z,72.50
2023-04-20T11:48:18.839Z,72.90
2023-04-20T11:50:21.513Z,72.80
2023-04-20T11:52:23.979Z,73.50
2023-04-20T11:54:28.164Z,73.90
2023-04-20T11:56:31.616Z,73.50
2023-04-20T11:58:33.629Z,73.30
2023-04-20T12:00:35.925Z,73.30
2023-04-20T12:02:39.403Z,73.30
2023-04-20T12:04:41.772Z,73.60
2023-04-20T12:06:44.689Z,73.60
2023-04-20T12:08:48.113Z,72.50
2023-04-20T12:10:51.562Z,72.30
2023-04-20T12:12:53.793Z,72.10
2023-04-20T12:14:59.250Z,72.60
2023-04-20T12:17:01.654Z,72.30
2023-04-20T12:19:05.209Z,71.70
2023-04-20T12:21:08.155Z,71.70
2023-04-20T12:23:10.153Z,72.30
2023-04-20T12:25:12.189Z,71.90
2023-04-20T12:27:14.361Z,71.60
2023-04-20T12:29:16.940Z,71.50
2023-04-20T12:31:20.386Z,71.30
2023-04-20T12:33:22.608Z,71.80
2023-04-20T12:35:28.825Z,71.50
2023-04-20T12:37:31.956Z,72.30
2023-04-20T12:39:33.979Z,72.50
2023-04-20T12:41:36.275Z,72.80
2023-04-20T12:43:38.651Z,72.60
2023-04-20T12:45:40.984Z,73.20
2023-04-20T12:47:43.236Z,73.00
2023-04-20T12:49:45.538Z,72.80
2023-04-20T12:51:49.345Z,73.20
2023-04-20T12:53:51.589Z,73.20
2023-04-20T12:56:00.830Z,72.80
2023-04-20T12:58:03.632Z,72.70
2023-04-20T13:00:07.077Z,72.50
2023-04-20T13:02:09.361Z,73.50
2023-04-20T13:04:11.764Z,73.60
2023-04-20T13:06:14.666Z,73.70
2023-04-20T13:08:19.741Z,74.50
2023-04-20T13:10:21.720Z,74.40
2023-04-20T13:12:24.111Z,74.00
2023-04-20T13:14:26.512Z,74.50
2023-04-20T13:16:29.469Z,74.60
2023-04-20T13:18:31.679Z,74.80
2023-04-20T13:20:33.775Z,75.50
2023-04-20T13:22:43.579Z,75.00
2023-04-20T13:24:53.928Z,75.30
2023-04-20T13:26:56.689Z,75.80
2023-04-20T13:28:58.733Z,75.70
2023-04-20T13:31:00.901Z,76.10
2023-04-20T13:33:02.926Z,76.20
2023-04-20T13:35:07.313Z,75.90
2023-04-20T13:37:09.420Z,75.60
2023-04-20T13:39:11.977Z,75.60
2023-04-20T13:41:15.285Z,75.50
2023-04-20T13:43:21.662Z,76.80
2023-04-20T13:45:27.095Z,75.50
2023-04-20T13:47:29.387Z,75.70
2023-04-20T13:49:31.424Z,74.80
2023-04-20T13:51:33.421Z,74.70
2023-04-20T13:53:35.508Z,75.50
2023-04-20T13:55:37.617Z,76.10
2023-04-20T13:57:41.070Z,76.10
2023-04-20T13:59:43.076Z,76.70
2023-04-20T14:01:45.298Z,75.40
2023-04-20T14:03:47.466Z,76.00
2023-04-20T14:05:51.664Z,77.00
2023-04-20T14:07:54.576Z,77.20
2023-04-20T14:09:59.727Z,77.00
2023-04-20T14:12:02.188Z,77.10
2023-04-20T14:14:06.110Z,75.60
2023-04-20T14:16:09.705Z,75.80
2023-04-20T14:18:12.114Z,75.90
2023-04-20T14:20:14.164Z,76.80
2023-04-20T14:22:16.639Z,76.80
2023-04-20T14:24:19.180Z,76.40
2023-04-20T14:26:21.373Z,77.10
2023-04-20T14:28:23.533Z,77.60
2023-04-20T14:30:26.971Z,77.40
2023-04-20T14:32:31.058Z,77.00
2023-04-20T14:34:33.520Z,75.70
2023-04-20T14:36:35.560Z,75.50
2023-04-20T14:38:37.570Z,76.20
2023-04-20T14:40:39.913Z,75.40
2023-04-20T14:42:42.324Z,75.90
2023-04-20T14:44:44.415Z,75.00
2023-04-20T14:46:47.968Z,75.10
2023-04-20T14:48:50.524Z,74.50
2023-04-20T14:50:53.759Z,73.80
2023-04-20T14:52:56.761Z,74.10
2023-04-20T14:54:59.042Z,74.30
2023-04-20T14:57:01.288Z,75.00
2023-04-20T14:59:03.539Z,75.90
2023-04-20T15:01:05.719Z,76.40
2023-04-20T15:03:09.515Z,76.00
2023-04-20T15:05:11.891Z,76.60
2023-04-20T15:07:14.173Z,77.00
2023-04-20T15:09:16.353Z,77.60
2023-04-20T15:11:18.361Z,77.60
2023-04-20T15:13:24.018Z,78.20
2023-04-20T15:15:34.602Z,77.40
2023-04-20T15:17:44.809Z,76.70
2023-04-20T15:19:48.189Z,77.20
2023-04-20T15:21:50.837Z,78.40
2023-04-20T15:23:53.099Z,79.10
2023-04-20T15:25:55.103Z,78.80
2023-04-20T15:27:57.032Z,78.70
2023-04-20T15:29:59.132Z,78.70
2023-04-20T15:32:03.789Z,78.10
2023-04-20T15:34:05.834Z,78.40
2023-04-20T15:36:09.805Z,78.50
2023-04-20T15:38:11.808Z,78.60
2023-04-20T15:40:14.187Z,78.30
2023-04-20T15:42:16.665Z,78.40
2023-04-20T15:44:19.070Z,78.40
2023-04-20T15:46:24.265Z,78.50
2023-04-20T15:48:27.185Z,78.10
2023-04-20T15:50:29.391Z,78.50
2023-04-20T15:52:32.846Z,78.30
2023-04-20T15:54:35.563Z,78.60
2023-04-20T15:56:37.585Z,78.60
2023-04-20T15:58:41.400Z,78.60
2023-04-20T16:00:43.572Z,78.90
2023-04-20T16:02:45.917Z,78.80
2023-04-20T16:04:48.272Z,78.50
2023-04-20T16:06:51.249Z,78.60
2023-04-20T16:08:54.836Z,79.40
2023-04-20T16:10:56.885Z,78.60
2023-04-20T16:12:58.921Z,78.10
2023-04-20T16:15:01.408Z,79.20
2023-04-20T16:17:03.811Z,78.20
2023-04-20T16:19:05.910Z,78.40
2023-04-20T16:21:07.976Z,77.60
2023-04-20T16:23:10.408Z,78.00
2023-04-20T16:25:22.397Z,78.60
2023-04-20T16:27:24.599Z,78.40
2023-04-20T16:29:26.591Z,77.90
2023-04-20T16:31:29.596Z,76.40
2023-04-20T16:33:32.175Z,75.80
2023-04-20T16:35:35.385Z,76.70
2023-04-20T16:37:37.480Z,77.00
2023-04-20T16:39:43.143Z,77.70
2023-04-20T16:41:47.211Z,76.40
2023-04-20T16:43:49.447Z,77.10
2023-04-20T16:45:51.420Z,77.40
2023-04-20T16:47:53.973Z,78.30
2023-04-20T16:49:56.110Z,79.50
2023-04-20T16:51:58.821Z,78.50
2023-04-20T16:54:01.555Z,78.10
2023-04-20T16:56:03.637Z,78.10
2023-04-20T16:58:07.155Z,78.00
2023-04-20T17:00:10.819Z,78.50
2023-04-20T17:02:12.982Z,78.70
2023-04-20T17:04:18.160Z,78.40
2023-04-20T17:06:20.747Z,79.20
2023-04-20T17:08:26.333Z,78.30
2023-04-20T17:10:28.350Z,77.60
2023-04-20T17:12:30.556Z,78.90
2023-04-20T17:14:34.553Z,78.10
2023-04-20T17:16:36.594Z,78.80
2023-04-20T17:18:41.188Z,79.30
2023-04-20T17:20:45.587Z,79.00
2023-04-20T17:22:47.834Z,79.40
2023-04-20T17:24:51.275Z,78.80
2023-04-20T17:26:53.332Z,79.40
2023-04-20T17:28:55.958Z,79.60
2023-04-20T17:30:59.350Z,80.30
2023-04-20T17:33:01.325Z,81.10
2023-04-20T17:35:04.239Z,80.70
2023-04-20T17:37:11.838Z,80.80
2023-04-20T17:39:15.644Z,80.80
2023-04-20T17:41:17.630Z,81.50
2023-04-20T17:43:19.716Z,80.60
2023-04-20T17:45:22.164Z,81.20
2023-04-20T17:47:25.832Z,81.50
2023-04-20T17:49:28.633Z,82.00
2023-04-20T17:51:30.664Z,81.50
2023-04-20T17:53:32.762Z,82.00
2023-04-20T17:55:34.960Z,82.60
2023-04-20T17:57:38.249Z,82.40
2023-04-20T17:59:42.344Z,82.70
2023-04-20T18:01:49.302Z,81.70
2023-04-20T18:03:52.949Z,82.40
2023-04-20T18:05:55.087Z,82.80
2023-04-20T18:07:58.483Z,83.00
2023-04-20T18:10:00.790Z,83.50
2023-04-20T18:12:02.846Z,83.10
2023-04-20T18:14:04.880Z,82.40
2023-04-20T18:16:07.969Z,82.60
2023-04-20T18:18:10.070Z,83.30
2023-04-20T18:20:14.137Z,83.70
2023-04-20T18:22:17.916Z,84.10
2023-04-20T18:24:20.426Z,84.20
2023-04-20T18:26:23.837Z,84.00
2023-04-20T18:28:26.072Z,84.60
2023-04-20T18:30:28.356Z,84.90
2023-04-20T18:32:31.391Z,85.00
2023-04-20T18:34:33.683Z,85.10
2023-04-20T18:36:37.415Z,85.10
2023-04-20T18:38:39.476Z,85.20
2023-04-20T18:40:41.647Z,85.30
2023-04-20T18:42:43.674Z,85.60
2023-04-20T18:44:52.950Z,86.10
2023-04-20T18:46:55.091Z,86.40
2023-04-20T18:48:57.615Z,87.50
2023-04-20T18:51:02.066Z,88.00
2023-04-20T18:53:05.636Z,88.10
2023-04-20T18:55:09.022Z,88.80
2023-04-20T18:57:11.632Z,88.90
2023-04-20T18:59:14.796Z,89.20
2023-04-20T19:01:17.272Z,89.20
2023-04-20T19:03:20.028Z,89.30
2023-04-20T19:05:23.152Z,90.00
2023-04-20T19:07:25.505Z,90.20
2023-04-20T19:09:28.860Z,90.40
2023-04-20T19:11:31.458Z,90.50
2023-04-20T19:13:33.424Z,90.60
2023-04-20T19:15:40.496Z,90.70
2023-04-20T19:17:42.913Z,91.00
2023-04-20T19:19:45.633Z,91.30
2023-04-20T19:21:48.404Z,91.30
2023-04-20T19:23:50.574Z,91.40
2023-04-20T19:25:53.953Z,91.50
2023-04-20T19:27:56.097Z,91.70
2023-04-20T19:29:58.217Z,91.70
2023-04-20T19:32:00.526Z,91.90
2023-04-20T19:34:03.257Z,92.10
2023-04-20T19:36:06.501Z,92.30
2023-04-20T19:38:08.622Z,92.40
2023-04-20T19:40:13.366Z,92.50
2023-04-20T19:42:18.529Z,92.40
2023-04-20T19:44:20.618Z,92.30
2023-04-20T19:46:22.832Z,92.10
2023-04-20T19:48:25.562Z,92.20
2023-04-20T19:50:27.662Z,92.00
2023-04-20T19:52:29.869Z,91.90
2023-04-20T19:54:31.930Z,92.10
2023-04-20T19:56:34.613Z,92.10
2023-04-20T19:58:38.136Z,92.00
2023-04-20T20:00:40.155Z,92.00
2023-04-20T20:02:42.709Z,92.00
2023-04-20T20:04:45.448Z,91.90
2023-04-20T20:06:50.568Z,92.00
2023-04-20T20:08:53.070Z,92.00
2023-04-20T20:10:55.043Z,92.30
2023-04-20T20:12:56.999Z,92.50
2023-04-20T20:15:01.024Z,92.70
2023-04-20T20:17:03.397Z,92.90
2023-04-20T20:19:05.451Z,93.10
2023-04-20T20:21:07.727Z,93.30
2023-04-20T20:23:09.704Z,93.50
2023-04-20T20:25:20.547Z,93.70
2023-04-20T20:27:25.581Z,93.80
2023-04-20T20:29:29.047Z,93.80
2023-04-20T20:31:32.954Z,93.90
2023-04-20T20:33:37.585Z,93.70
2023-04-20T20:35:40.145Z,93.70
2023-04-20T20:37:46.485Z,93.70
2023-04-20T20:39:48.506Z,93.80
2023-04-20T20:41:51.253Z,93.90
2023-04-20T20:43:54.749Z,94.10
2023-04-20T20:45:59.091Z,94.20
2023-04-20T20:48:03.084Z,94.10
2023-04-20T20:50:06.312Z,94.10
2023-04-20T20:52:09.231Z,94.10
2023-04-20T20:54:11.835Z,94.10
2023-04-20T20:56:14.633Z,94.10
2023-04-20T20:58:16.634Z,94.30
2023-04-20T21:00:19.417Z,94.40
2023-04-20T21:02:25.309Z,94.40
2023-04-20T21:04:33.146Z,94.30
2023-04-20T21:06:35.404Z,94.40
2023-04-20T21:08:37.396Z,94.50
2023-04-20T21:10:39.445Z,94.50
2023-04-20T21:12:41.725Z,94.70
2023-04-20T21:14:43.715Z,94.40
2023-04-20T21:16:46.002Z,94.50
2023-04-20T21:18:48.151Z,94.80
2023-04-20T21:20:51.554Z,94.80
2023-04-20T21:22:53.889Z,94.90
2023-04-20T21:24:58.611Z,95.10
2023-04-20T21:27:00.575Z,95.20
2023-04-20T21:29:03.012Z,94.90
2023-04-20T21:31:05.411Z,94.90
2023-04-20T21:33:07.441Z,95.00
2023-04-20T21:35:11.502Z,95.00
2023-04-20T21:37:15.947Z,95.00
2023-04-20T21:39:22.257Z,95.00
2023-04-20T21:41:26.512Z,95.10
2023-04-20T21:43:28.941Z,95.00
2023-04-20T21:45:31.034Z,94.90
2023-04-20T21:47:33.030Z,94.90
2023-04-20T21:49:36.702Z,94.90
2023-04-20T21:51:39.087Z,94.90
2023-04-20T21:53:42.471Z,94.90
2023-04-20T21:55:44.482Z,94.90
2023-04-20T21:57:46.676Z,94.60
2023-04-20T21:59:48.659Z,94.80
2023-04-20T22:01:51.059Z,95.00
2023-04-20T22:03:53.723Z,95.00
2023-04-20T22:05:57.003Z,95.10
2023-04-20T22:07:59.855Z,95.10
2023-04-20T22:10:04.556Z,95.10
2023-04-20T22:12:09.258Z,95.20
2023-04-20T22:14:11.490Z,95.10
2023-04-20T22:16:13.993Z,95.40
2023-04-20T22:18:17.377Z,95.30
2023-04-20T22:20:19.489Z,95.40
2023-04-20T22:22:21.737Z,95.30
2023-04-20T22:24:24.049Z,95.30
2023-04-20T22:26:27.685Z,95.30
2023-04-20T22:28:29.801Z,95.40
2023-04-20T22:30:31.733Z,95.40
2023-04-20T22:32:33.722Z,95.60
2023-04-20T22:34:35.986Z,95.60
2023-04-20T22:36:38.279Z,95.50
2023-04-20T22:38:40.410Z,95.70
2023-04-20T22:40:42.516Z,95.70
2023-04-20T22:42:46.316Z,95.70
2023-04-20T22:44:48.484Z,95.80
2023-04-20T22:46:51.171Z,95.70
2023-04-20T22:48:53.461Z,95.80
2023-04-20T22:50:56.033Z,96.00
2023-04-20T22:52:59.999Z,96.00
2023-04-20T22:55:06.079Z,96.00
2023-04-20T22:57:08.033Z,96.00
2023-04-20T22:59:11.571Z,96.20
2023-04-20T23:01:14.072Z,96.00
2023-04-20T23:03:16.557Z,96.20
2023-04-20T23:05:20.375Z,96.20
2023-04-20T23:07:23.267Z,96.30
2023-04-20T23:09:25.676Z,96.50
2023-04-20T23:11:29.709Z,96.40
2023-04-20T23:13:33.209Z,96.40
2023-04-20T23:15:36.675Z,96.40
2023-04-20T23:17:39.050Z,96.40
2023-04-20T23:19:41.162Z,96.60
2023-04-20T23:21:43.420Z,96.50
2023-04-20T23:23:49.551Z,96.60
2023-04-20T23:25:51.780Z,96.50
2023-04-20T23:27:54.023Z,96.60
2023-04-20T23:29:56.084Z,96.60
2023-04-20T23:32:01.262Z,96.70
2023-04-20T23:34:03.427Z,96.70
2023-04-20T23:36:05.985Z,96.60
2023-04-20T23:38:08.189Z,96.60
2023-04-20T23:40:13.413Z,96.50
2023-04-20T23:42:15.875Z,96.70
2023-04-20T23:44:18.014Z,96.90
2023-04-20T23:46:20.115Z,97.00
2023-04-20T23:48:23.836Z,96.80
2023-04-20T23:50:26.023Z,96.80
2023-04-20T23:52:28.825Z,96.70
2023-04-20T23:54:34.362Z,96.90
2023-04-20T23:56:36.527Z,96.80
2023-04-20T23:58:38.552Z,96.70
